Latest Weather Observations for Borroloola

IDD60801

Issued at 10:21 am CST Monday 16 September 2019 (issued every 10 minutes, with the page automatically refreshed every 10 minutes)

About weather observations | Map of weather stations | Latest weather observations for NT | Other Formats
Station Details ID: 014723 Name: BORROLOOLA AIRPORT Lat: -16.08 Lon: 136.30 Height: 16.1 m
Data from the previous 72 hours. | See also: Recent months at Borroloola
Date/Time
CST
Temp
°C
App
Temp
°C
Dew
Point
°C
Rel
Hum
%
Delta-T
°C
Wind Press
QNH
hPa
Press
MSL
hPa
Rain since
9am
mm
Dir  Spd
km/h
Gust
km/h
Spd
kts
Gust
kts
16/10:00am 29.7 25.9 7.6 25 12.0 NNE 17 20 9 11 1018.4 1018.3 0.0
16/09:30am 27.6 25.2 9.9 33 9.9 NE 13 19 7 10 1018.5 1018.4 0.0
16/09:00am 25.3 23.8 11.8 43 7.7 NNE 11 15 6 8 1018.5 1018.4 0.0
16/08:30am 22.8 21.9 13.6 56 5.3 NE 11 20 6 11 1018.4 1018.3 0.0
16/08:00am 20.5 20.4 13.9 66 3.8 SSW 7 11 4 6 1017.4 1017.3 0.0
16/07:30am 17.0 17.9 12.9 77 2.3 CALM 0 0 0 0 1017.4 1017.3 0.0
16/07:00am 13.6 14.1 11.7 88 1.0 CALM 0 0 0 0 1017.2 1017.1 0.0
16/06:30am 12.0 12.1 10.1 88 1.0 CALM 0 0 0 0 1017.0 1016.9 0.0
16/06:00am 11.4 11.2 9.0 85 1.2 CALM 0 0 0 0 1016.7 1016.6 0.0
16/05:30am 11.5 11.3 8.9 84 1.3 CALM 0 0 0 0 1016.6 1016.5 0.0
16/05:00am 12.2 12.3 10.1 87 1.1 CALM 0 4 0 2 1016.6 1016.5 0.0
16/04:30am 12.3 11.2 10.0 86 1.2 SSE 6 7 3 4 1016.2 1016.1 0.0
16/04:00am 12.1 12.1 9.7 85 1.2 CALM 0 0 0 0 1016.0 1015.9 0.0
16/03:30am 12.6 12.7 10.0 84 1.3 CALM 0 0 0 0 1016.0 1015.9 0.0
16/03:00am 12.8 12.1 10.2 84 1.3 WSW 4 7 2 4 1016.0 1015.9 0.0
16/02:30am 13.7 14.1 11.2 85 1.3 CALM 0 0 0 0 1016.4 1016.3 0.0
16/02:00am 13.8 14.2 11.3 85 1.3 CALM 0 0 0 0 1016.5 1016.4 0.0
16/01:30am 13.8 13.9 10.0 78 2.0 CALM 0 0 0 0 1016.7 1016.6 0.0
16/01:00am 14.8 14.8 11.0 78 2.0 NNE 2 9 1 5 1016.8 1016.7 0.0
16/12:30am 15.1 15.5 11.3 78 2.0 CALM 0 0 0 0 1017.0 1016.9 0.0
16/12:00am 18.0 19.2 13.7 76 2.4 CALM 0 0 0 0 1017.1 1017.0 0.0
 
Date/Time
CST
Temp
°C
App
Temp
°C
Dew
Point
°C
Rel
Hum
%
Delta-T
°C
Wind Press
QNH
hPa
Press
MSL
hPa
Rain since
9am
mm
Dir  Spd
km/h
Gust
km/h
Spd
kts
Gust
kts
15/11:30pm 18.8 20.2 14.3 75 2.6 CALM 0 0 0 0 1017.3 1017.2 0.0
15/11:00pm 19.3 20.5 13.9 71 3.1 CALM 0 0 0 0 1017.3 1017.2 0.0
15/10:30pm 19.6 20.7 13.5 68 3.5 CALM 0 0 0 0 1017.3 1017.2 0.0
15/10:00pm 19.8 19.6 13.0 65 3.9 N 6 9 3 5 1017.4 1017.3 0.0
15/09:30pm 20.2 19.7 12.7 62 4.2 N 7 9 4 5 1017.5 1017.4 0.0
15/09:00pm 21.4 21.0 12.5 57 5.0 NNE 6 7 3 4 1017.5 1017.4 0.0
15/08:30pm 22.3 21.5 12.8 55 5.4 NNE 9 13 5 7 1017.2 1017.1 0.0
15/08:00pm 23.2 22.6 12.2 50 6.2 NE 7 13 4 7 1016.8 1016.7 0.0
15/07:30pm 24.7 22.4 10.6 41 7.8 NE 13 20 7 11 1016.4 1016.3 0.0
15/07:00pm 25.5 22.0 8.9 35 9.0 NE 17 22 9 12 1016.2 1016.1 0.0
15/06:30pm 26.2 22.2 8.2 32 9.7 NE 19 28 10 15 1015.8 1015.7 0.0
15/06:00pm 27.1 23.0 8.0 30 10.3 NE 19 26 10 14 1015.5 1015.4 0.0
15/05:30pm 28.4 25.2 11.9 36 9.5 NE 20 32 11 17 1015.3 1015.2 0.0
15/05:00pm 29.4 26.7 13.6 38 9.4 NE 20 26 11 14 1014.9 1014.8 0.0
15/04:30pm 30.2 27.8 14.3 38 9.6 NE 20 32 11 17 1014.7 1014.6 0.0
15/04:00pm 31.1 28.5 13.8 34 10.4 NE 20 30 11 16 1014.6 1014.5 0.0
15/03:30pm 32.0 29.3 12.8 31 11.4 ENE 19 30 10 16 1014.5 1014.4 0.0
15/03:00pm 32.0 30.1 11.7 28 11.9 E 13 24 7 13 1014.8 1014.7 0.0
15/02:30pm 31.5 28.5 11.8 30 11.5 E 19 32 10 17 1014.9 1014.8 0.0
15/02:00pm 33.5 30.7 11.4 26 13.0 ENE 17 26 9 14 1015.2 1015.1 0.0
15/01:30pm 32.3 29.8 9.8 25 12.8 NE 13 24 7 13 1015.7 1015.6 0.0
15/01:00pm 31.6 28.7 9.8 26 12.4 ENE 15 28 8 15 1016.4 1016.3 0.0
15/12:30pm 31.4 27.9 10.2 27 12.1 NE 19 24 10 13 1017.0 1016.9 0.0
15/12:00pm 31.5 27.8 10.2 27 12.1 ENE 20 32 11 17 1017.7 1017.6 0.0
15/11:30am 30.8 26.3 10.2 28 11.7 NE 24 33 13 18 1018.2 1018.1 0.0
15/11:00am 31.0 26.0 8.1 24 12.6 ENE 24 33 13 18 1018.3 1018.2 0.0
15/10:30am 31.5 27.1 6.5 21 13.4 NE 19 26 10 14 1018.7 1018.6 0.0
15/10:00am 30.2 25.4 5.5 21 13.0 ENE 20 33 11 18 1018.7 1018.6 0.0
15/09:30am 28.9 26.1 6.9 25 11.7 E 11 19 6 10 1018.8 1018.7 0.0
15/09:00am 26.7 25.0 10.0 35 9.3 SSW 9 13 5 7 1018.5 1018.4 0.0
15/08:30am 23.9 22.5 10.9 44 7.2 SSW 9 15 5 8 1018.4 1018.3 0.0
15/08:00am 21.1 20.3 11.7 55 5.2 S 7 11 4 6 1018.3 1018.2 0.0
15/07:30am 17.0 17.2 11.7 71 2.9 SSE 2 6 1 3 1018.2 1018.1 0.0
15/07:00am 13.1 13.3 10.5 84 1.4 CALM 0 0 0 0 1017.8 1017.7 0.0
15/06:30am 11.2 10.1 8.4 83 1.4 E 4 6 2 3 1017.5 1017.4 0.0
15/06:00am 11.5 10.7 8.0 79 1.7 E 2 7 1 4 1017.2 1017.1 0.0
15/05:30am 11.9 11.5 8.2 78 1.8 CALM 0 0 0 0 1016.9 1016.8 0.0
15/05:00am 12.0 11.5 9.4 84 1.3 E 2 7 1 4 1016.7 1016.6 0.0
15/04:30am 12.0 11.8 9.2 83 1.4 CALM 0 0 0 0 1016.5 1016.4 0.0
15/04:00am 12.5 12.3 9.0 79 1.8 CALM 0 0 0 0 1016.2 1016.1 0.0
15/03:30am 12.8 12.6 9.1 78 1.9 CALM 0 0 0 0 1016.3 1016.2 0.0
15/03:00am 12.6 11.7 9.2 80 1.7 E 4 7 2 4 1016.4 1016.3 0.0
15/02:30am 12.8 11.0 7.3 69 2.7 E 6 7 3 4 1016.5 1016.4 0.0
15/02:00am 14.0 13.8 9.2 73 2.4 CALM 0 0 0 0 1016.8 1016.7 0.0
15/01:30am 14.7 14.7 9.7 72 2.6 CALM 0 0 0 0 1016.8 1016.7 0.0
15/01:00am 15.2 15.2 9.8 70 2.8 CALM 0 0 0 0 1017.1 1017.0 0.0
15/12:30am 15.3 15.0 8.5 64 3.4 CALM 0 0 0 0 1017.3 1017.2 0.0
15/12:00am 16.0 14.6 9.0 63 3.6 E 6 7 3 4 1017.5 1017.4 0.0
 
Date/Time
CST
Temp
°C
App
Temp
°C
Dew
Point
°C
Rel
Hum
%
Delta-T
°C
Wind Press
QNH
hPa
Press
MSL
hPa
Rain since
9am
mm
Dir  Spd
km/h
Gust
km/h
Spd
kts
Gust
kts
14/11:30pm 16.3 16.2 9.3 63 3.6 CALM 0 0 0 0 1017.5 1017.4 0.0
14/11:00pm 18.4 17.6 9.7 57 4.6 NNW 4 7 2 4 1017.7 1017.6 0.0
14/10:30pm 18.7 18.7 9.8 56 4.7 CALM 0 0 0 0 1017.7 1017.6 0.0
14/10:00pm 20.6 21.1 11.5 56 5.0 CALM 0 0 0 0 1017.7 1017.6 0.0
14/09:30pm 21.2 20.0 11.5 54 5.4 NNE 9 11 5 6 1017.8 1017.7 0.0
14/09:00pm 21.8 20.9 11.5 52 5.7 NNE 7 9 4 5 1017.9 1017.8 0.0
14/08:30pm 22.5 21.5 10.9 48 6.4 NNE 7 11 4 6 1017.8 1017.7 0.0
14/08:00pm 23.6 22.1 10.6 44 7.2 NNE 9 15 5 8 1017.5 1017.4 0.0
14/07:30pm 24.5 22.0 9.6 39 8.1 NNE 13 17 7 9 1017.2 1017.1 0.0
14/07:00pm 25.2 21.5 7.8 33 9.2 NE 17 26 9 14 1016.9 1016.8 0.0
14/06:30pm 26.1 22.0 7.7 31 9.8 NE 19 30 10 16 1016.6 1016.5 0.0
14/06:00pm 27.3 23.4 7.2 28 10.7 NE 17 22 9 12 1016.3 1016.2 0.0
14/05:30pm 28.5 24.5 8.2 28 11.0 NNE 19 28 10 15 1016.0 1015.9 0.0
14/05:00pm 29.3 25.4 9.4 29 11.1 NE 20 28 11 15 1015.8 1015.7 0.0
14/04:30pm 29.9 26.5 11.4 32 10.7 NE 20 28 11 15 1015.7 1015.6 0.0
14/04:00pm 30.5 28.0 12.4 33 10.7 NE 17 24 9 13 1015.6 1015.5 0.0
14/03:30pm 30.5 27.5 13.7 35 10.1 NE 22 33 12 18 1015.6 1015.5 0.0
14/03:00pm 31.2 28.4 14.4 36 10.2 ENE 22 39 12 21 1015.7 1015.6 0.0
14/02:30pm 31.3 28.5 13.1 33 10.9 ENE 20 32 11 17 1015.9 1015.8 0.0
14/02:00pm 32.2 28.9 12.9 31 11.5 NE 22 35 12 19 1016.3 1016.2 0.0
14/01:30pm 32.5 29.5 12.7 30 11.8 ENE 20 33 11 18 1016.6 1016.5 0.0
14/01:00pm 31.8 28.1 11.6 29 11.8 ENE 22 33 12 18 1017.2 1017.1 0.0
14/12:30pm 32.6 27.9 10.6 26 12.7 ENE 26 41 14 22 1017.5 1017.4 0.0
14/12:00pm 32.4 28.0 7.3 21 13.7 E 20 35 11 19 1018.2 1018.1 0.0
14/11:30am 31.7 27.3 7.4 22 13.3 ENE 20 37 11 20 1018.7 1018.6 0.0
14/11:00am 31.8 27.3 6.8 21 13.5 E 20 28 11 15 1019.2 1019.1 0.0
14/10:30am 30.7 24.5 4.4 19 13.6 ENE 26 39 14 21 1019.7 1019.6 0.0
14/10:00am 30.2 24.5 4.8 20 13.2 ENE 24 37 13 20 1020.0 1019.9 0.0
14/09:30am 28.5 24.1 6.6 25 11.6 SE 19 24 10 13 1019.8 1019.7 0.0
14/09:00am 27.7 25.3 8.6 30 10.4 SSE 11 17 6 9 1019.8 1019.7 0.0
14/08:30am 24.5 22.5 11.5 44 7.3 S 13 15 7 8 1019.8 1019.7 0.0
14/08:00am 21.6 20.7 12.7 57 5.1 SSW 9 15 5 8 1019.7 1019.6 0.0
14/07:30am 17.8 18.9 13.5 76 2.4 CALM 0 0 0 0 1019.6 1019.5 0.0
14/07:00am 14.3 15.0 12.3 88 1.1 CALM 0 0 0 0 1019.2 1019.1 0.0
14/06:30am 12.3 12.3 9.9 85 1.2 CALM 0 0 0 0 1018.9 1018.8 0.0
14/06:00am 12.8 13.1 11.0 89 0.9 CALM 0 0 0 0 1018.5 1018.4 0.0
14/05:30am 13.0 13.2 10.4 84 1.3 CALM 0 0 0 0 1018.2 1018.1 0.0
14/05:00am 13.0 12.6 11.2 89 0.9 SSW 4 9 2 5 1017.9 1017.8 0.0
14/04:30am 12.8 13.0 10.5 86 1.2 CALM 0 2 0 1 1017.8 1017.7 0.0
14/04:00am 13.4 13.1 11.5 88 1.0 SSE 4 7 2 4 1017.7 1017.6 0.0
14/03:30am 13.9 14.5 11.8 87 1.1 CALM 0 0 0 0 1017.6 1017.5 0.0
14/03:00am 13.8 13.7 10.8 82 1.6 SSW 2 7 1 4 1017.9 1017.8 0.0
14/02:30am 14.5 15.1 11.8 84 1.5 CALM 0 0 0 0 1018.1 1018.0 0.0
14/02:00am 14.9 15.4 11.5 80 1.8 CALM 0 0 0 0 1018.2 1018.1 0.0
14/01:30am 15.5 16.4 13.0 85 1.4 CALM 0 0 0 0 1018.5 1018.4 0.0
14/01:00am 16.1 17.0 13.0 82 1.7 CALM 0 2 0 1 1018.8 1018.7 0.0
14/12:30am 16.5 17.1 13.0 80 1.9 SSW 2 7 1 4 1018.9 1018.8 0.0
14/12:00am 16.5 16.5 12.5 77 2.2 S 4 6 2 3 1019.0 1018.9 0.0
 
Date/Time
CST
Temp
°C
App
Temp
°C
Dew
Point
°C
Rel
Hum
%
Delta-T
°C
Wind Press
QNH
hPa
Press
MSL
hPa
Rain since
9am
mm
Dir  Spd
km/h
Gust
km/h
Spd
kts
Gust
kts
13/11:30pm 17.4 18.4 13.3 77 2.3 CALM 0 0 0 0 1018.9 1018.8 0.0
13/11:00pm 19.7 21.1 14.3 71 3.1 CALM 0 6 0 3 1019.0 1018.9 0.0
13/10:30pm 20.9 21.6 15.7 72 3.1 NNE 6 7 3 4 1019.1 1019.0 0.0
13/10:00pm 21.4 22.0 15.3 68 3.6 NE 6 7 3 4 1019.1 1019.0 0.0
13/09:30pm 21.9 21.9 15.3 66 3.9 ENE 9 13 5 7 1019.0 1018.9 0.0
13/09:00pm 22.5 22.3 15.6 65 4.1 NE 11 15 6 8 1018.8 1018.7 0.0
13/08:30pm 22.9 21.9 15.7 64 4.3 NE 15 20 8 11 1018.6 1018.5 0.0
13/08:00pm 23.4 22.3 15.2 60 4.9 NE 15 28 8 15 1018.3 1018.2 0.0
13/07:30pm 23.8 21.8 13.9 54 5.8 NE 17 24 9 13 1018.1 1018.0 0.0
13/07:00pm 24.4 22.2 13.3 50 6.5 NE 17 30 9 16 1017.6 1017.5 0.0
13/06:30pm 25.1 21.4 12.7 46 7.2 NE 24 32 13 17 1017.3 1017.2 0.0
13/06:00pm 26.1 23.2 12.9 44 7.7 NE 20 30 11 16 1017.1 1017.0 0.0
13/05:30pm 27.1 24.1 14.8 47 7.4 NE 24 32 13 17 1016.9 1016.8 0.0
13/05:00pm 28.1 25.3 15.4 46 7.8 NE 24 33 13 18 1016.7 1016.6 0.0
13/04:30pm 28.6 25.0 15.2 44 8.2 NE 28 41 15 22 1016.4 1016.3 0.0
13/04:00pm 30.0 26.7 14.1 37 9.6 ENE 24 39 13 21 1016.4 1016.3 0.0
13/03:30pm 29.5 25.6 13.3 37 9.6 NE 26 41 14 22 1016.4 1016.3 0.0
13/03:00pm 30.2 26.0 13.5 36 10.0 NE 28 41 15 22 1016.6 1016.5 0.0
13/02:30pm 30.9 26.8 12.8 33 10.7 NE 26 43 14 23 1016.9 1016.8 0.0
13/02:00pm 30.7 26.6 11.6 31 11.1 NE 24 33 13 18 1017.1 1017.0 0.0
13/01:30pm 31.7 27.2 8.7 24 12.8 NE 22 37 12 20 1017.2 1017.1 0.0
13/01:00pm 32.4 25.6 0.5 13 15.6 E 26 37 14 20 1017.8 1017.7 0.0
13/12:30pm 33.3 27.2 0.1 12 16.2 E 22 35 12 19 1018.0 1017.9 0.0
13/12:00pm 33.1 26.5 -0.1 12 16.1 SE 24 37 13 20 1018.6 1018.5 0.0
13/11:30am 33.0 27.0 0.9 13 15.8 E 22 32 12 17 1019.0 1018.9 0.0
13/11:00am 31.5 25.1 0.8 14 15.0 ESE 24 41 13 22 1019.5 1019.4 0.0
13/10:30am 31.5 25.2 1.8 15 14.7 ESE 24 35 13 19 1020.0 1019.9 0.0

Other formats

Comma delimited format used in spreadsheet applications
http://www.bom.gov.au/fwo/IDD60801/IDD60801.94152.axf

JavaScript Object Notation format (JSON) in row-major order
http://www.bom.gov.au/fwo/IDD60801/IDD60801.94152.json

Data quality

Most of these data are generated automatically and are frequently updated. Quality checks on data are not normally performed. It is possible for incorrect values to appear. Refer to information at About Latest Weather Observations and please check the disclaimer before using these data.